Terminal Aerodrome Forecast
Issued by NWS

Home | Current Version | Previous Version | Text Only | Print | Product List | Glossary Off
Versions: 1 2 3 4 5 6 7 8 9 10 11 12 13

000
FTUS43 KTOP 021100
TAFFOE
TAF
KFOE 021137Z 0212/0312 14006KT P6SM BKN090
     FM021500 19012KT P6SM VCSH BKN090
     FM021900 17012KT P6SM SCT090 BKN250
     FM030100 17007KT P6SM SCT070=

USA.gov is the U.S. government's official web portal to all federal, state and local government web resources and services.